createdAt,value
2022-12-04T00:00:02.253Z,95570
2022-12-04T00:01:02.271Z,95570
2022-12-04T00:02:02.266Z,95568
2022-12-04T00:04:02.242Z,95568
2022-12-04T00:05:02.321Z,95575
2022-12-04T00:06:02.269Z,95575
2022-12-04T00:07:02.280Z,95570
2022-12-04T00:08:02.330Z,95567
2022-12-04T00:09:02.271Z,95575
2022-12-04T00:10:02.305Z,95574
2022-12-04T00:11:05.722Z,95568
2022-12-04T00:12:02.256Z,95567
2022-12-04T00:13:02.239Z,95567
2022-12-04T00:14:06.986Z,95565
2022-12-04T00:15:26.013Z,95566
2022-12-04T00:16:02.401Z,95566
2022-12-04T00:17:02.248Z,95572
2022-12-04T00:18:02.337Z,95575
2022-12-04T00:19:02.257Z,95574
2022-12-04T00:20:02.409Z,95572
2022-12-04T00:21:02.332Z,95572
2022-12-04T00:22:02.307Z,95571
2022-12-04T00:23:02.352Z,95565
2022-12-04T00:24:02.296Z,95565
2022-12-04T00:25:02.307Z,95567
2022-12-04T00:26:02.291Z,95561
2022-12-04T00:27:02.330Z,95561
2022-12-04T00:30:02.319Z,95559
2022-12-04T00:31:02.280Z,95561
2022-12-04T00:32:02.406Z,95559
2022-12-04T00:33:02.337Z,95559
2022-12-04T00:34:02.480Z,95562
2022-12-04T00:35:02.308Z,95560
2022-12-04T00:36:02.363Z,95558
2022-12-04T00:37:02.302Z,95558
2022-12-04T00:38:02.357Z,95561
2022-12-04T00:39:02.325Z,95567
2022-12-04T00:40:02.306Z,95567
2022-12-04T00:41:02.340Z,95563
2022-12-04T00:42:02.315Z,95568
2022-12-04T00:43:02.339Z,95570
2022-12-04T00:45:02.374Z,95566
2022-12-04T00:46:02.484Z,95569
2022-12-04T00:47:02.324Z,95569
2022-12-04T00:48:05.964Z,95571
2022-12-04T00:49:02.347Z,95570
2022-12-04T00:50:02.339Z,95570
2022-12-04T00:51:02.417Z,95568
2022-12-04T00:52:02.329Z,95565
2022-12-04T00:54:02.390Z,95569
2022-12-04T00:55:02.336Z,95562
2022-12-04T00:56:02.394Z,95563
2022-12-04T00:57:02.349Z,95563
2022-12-04T00:58:02.387Z,95564
2022-12-04T00:59:02.368Z,95564
2022-12-04T01:00:02.403Z,95564
2022-12-04T01:01:02.542Z,95570
2022-12-04T01:02:02.402Z,95570
2022-12-04T01:03:02.524Z,95575
2022-12-04T01:04:02.394Z,95578
2022-12-04T01:05:02.393Z,95578
2022-12-04T01:06:02.495Z,95573
2022-12-04T01:07:05.212Z,95573
2022-12-04T01:08:02.505Z,95572
2022-12-04T01:09:02.402Z,95569
2022-12-04T01:10:02.438Z,95569
2022-12-04T01:11:02.453Z,95566
2022-12-04T01:12:02.424Z,95568
2022-12-04T01:13:02.470Z,95572
2022-12-04T01:14:02.441Z,95575
2022-12-04T01:15:02.435Z,95570
2022-12-04T01:18:02.450Z,95567
2022-12-04T01:19:02.412Z,95567
2022-12-04T01:20:02.404Z,95566
2022-12-04T01:21:02.450Z,95563
2022-12-04T01:22:02.443Z,95563
2022-12-04T01:23:02.420Z,95565
2022-12-04T01:24:02.431Z,95562
2022-12-04T01:25:06.243Z,95559
2022-12-04T01:26:02.493Z,95561
2022-12-04T01:28:02.471Z,95562
2022-12-04T01:31:02.473Z,95566
2022-12-04T01:33:02.461Z,95562
2022-12-04T01:34:02.461Z,95560
2022-12-04T01:35:02.470Z,95557
2022-12-04T01:36:02.484Z,95557
2022-12-04T01:37:02.456Z,95560
2022-12-04T01:38:02.467Z,95563
2022-12-04T01:39:02.526Z,95556
2022-12-04T01:40:02.511Z,95556
2022-12-04T01:41:02.502Z,95561
2022-12-04T01:42:02.473Z,95561
2022-12-04T01:43:02.451Z,95560
2022-12-04T01:44:02.534Z,95559
2022-12-04T01:45:02.457Z,95559
2022-12-04T01:46:02.601Z,95557
2022-12-04T01:47:02.508Z,95557
2022-12-04T01:48:02.516Z,95557
2022-12-04T01:49:02.539Z,95565
2022-12-04T01:50:02.511Z,95557
2022-12-04T01:51:02.556Z,95559
2022-12-04T01:52:02.512Z,95559
2022-12-04T01:53:02.557Z,95563
2022-12-04T01:54:02.556Z,95560
2022-12-04T01:55:02.530Z,95560
2022-12-04T01:56:02.534Z,95556
2022-12-04T01:57:02.552Z,95558
2022-12-04T01:58:02.498Z,95558
2022-12-04T01:59:02.546Z,95560
2022-12-04T02:00:02.540Z,95560
2022-12-04T02:01:07.931Z,95563
2022-12-04T02:02:06.625Z,95558
2022-12-04T02:03:02.626Z,95558
2022-12-04T02:04:02.585Z,95550
2022-12-04T02:05:02.543Z,95550
2022-12-04T02:06:02.554Z,95544
2022-12-04T02:07:02.557Z,95547
2022-12-04T02:08:02.693Z,95551
2022-12-04T02:09:02.589Z,95546
2022-12-04T02:10:02.549Z,95544
2022-12-04T02:11:02.537Z,95544
2022-12-04T02:12:02.577Z,95546
2022-12-04T02:13:02.531Z,95546
2022-12-04T02:14:02.601Z,95545
2022-12-04T02:15:02.577Z,95541
2022-12-04T02:16:02.592Z,95540
2022-12-04T02:18:02.557Z,95549
2022-12-04T02:21:02.540Z,95546
2022-12-04T02:22:02.629Z,95540
2022-12-04T02:23:02.592Z,95540
2022-12-04T02:24:02.629Z,95539
2022-12-04T02:25:02.543Z,95539
2022-12-04T02:27:02.635Z,95540
2022-12-04T02:28:02.615Z,95540
2022-12-04T02:29:02.617Z,95539
2022-12-04T02:30:02.609Z,95539
2022-12-04T02:31:02.614Z,95543
2022-12-04T02:32:02.606Z,95535
2022-12-04T02:33:02.636Z,95535
2022-12-04T02:34:02.589Z,95537
2022-12-04T02:35:02.579Z,95537
2022-12-04T02:36:02.596Z,95549
2022-12-04T02:37:02.673Z,95550
2022-12-04T02:38:02.633Z,95549
2022-12-04T02:39:06.747Z,95551
2022-12-04T02:40:02.634Z,95551
2022-12-04T02:41:02.617Z,95551
2022-12-04T02:42:02.676Z,95545
2022-12-04T02:43:02.643Z,95545
2022-12-04T02:44:02.689Z,95546
2022-12-04T02:45:02.607Z,95546
2022-12-04T02:46:02.665Z,95550
2022-12-04T02:47:02.692Z,95547
2022-12-04T02:48:02.656Z,95550
2022-12-04T02:49:02.651Z,95551
2022-12-04T02:50:02.664Z,95556
2022-12-04T02:51:02.627Z,95553
2022-12-04T02:52:02.660Z,95556
2022-12-04T02:53:02.663Z,95556
2022-12-04T02:55:07.996Z,95553
2022-12-04T02:56:02.634Z,95552
2022-12-04T02:57:02.709Z,95552
2022-12-04T02:58:02.644Z,95559
2022-12-04T02:59:02.689Z,95558
2022-12-04T03:00:02.691Z,95551
2022-12-04T03:01:02.783Z,95551
2022-12-04T03:02:02.688Z,95559
2022-12-04T03:03:02.712Z,95559
2022-12-04T03:04:02.681Z,95559
2022-12-04T03:05:02.660Z,95554
2022-12-04T03:07:02.723Z,95557
2022-12-04T03:09:02.730Z,95552
2022-12-04T03:10:02.664Z,95548
2022-12-04T03:11:02.708Z,95551
2022-12-04T03:12:02.750Z,95554
2022-12-04T03:13:02.709Z,95554
2022-12-04T03:14:02.717Z,95552
2022-12-04T03:15:02.694Z,95551
2022-12-04T03:16:06.977Z,95551
2022-12-04T03:17:02.787Z,95546
2022-12-04T03:18:02.734Z,95546
2022-12-04T03:19:02.730Z,95543
2022-12-04T03:20:02.762Z,95542
2022-12-04T03:21:02.728Z,95542
2022-12-04T03:22:02.764Z,95540
2022-12-04T03:25:02.792Z,95539
2022-12-04T03:26:02.729Z,95539
2022-12-04T03:27:02.699Z,95540
2022-12-04T03:28:02.753Z,95539
2022-12-04T03:29:02.753Z,95540
2022-12-04T03:30:02.780Z,95540
2022-12-04T03:32:02.771Z,95533
2022-12-04T03:33:02.762Z,95536
2022-12-04T03:34:02.801Z,95534
2022-12-04T03:35:02.784Z,95532
2022-12-04T03:36:02.733Z,95532
2022-12-04T03:37:02.742Z,95533
2022-12-04T03:38:02.809Z,95538
2022-12-04T03:39:02.728Z,95538
2022-12-04T03:40:02.810Z,95536
2022-12-04T03:43:02.847Z,95536
2022-12-04T03:44:02.745Z,95536
2022-12-04T03:45:02.762Z,95539
2022-12-04T03:46:02.869Z,95535
2022-12-04T03:47:02.788Z,95535
2022-12-04T03:48:02.795Z,95532
2022-12-04T03:49:02.753Z,95532
2022-12-04T03:50:02.792Z,95531
2022-12-04T03:51:02.795Z,95533
2022-12-04T03:53:07.226Z,95539
2022-12-04T03:54:02.829Z,95539
2022-12-04T03:55:02.810Z,95539
2022-12-04T03:56:02.847Z,95540
2022-12-04T03:59:02.818Z,95534
2022-12-04T04:00:03.303Z,95532
2022-12-04T04:01:02.921Z,95531
2022-12-04T04:02:02.884Z,95531
2022-12-04T04:03:02.855Z,95531
2022-12-04T04:04:02.821Z,95540
2022-12-04T04:05:02.846Z,95540
2022-12-04T04:06:02.835Z,95538
2022-12-04T04:07:02.799Z,95538
2022-12-04T04:08:02.918Z,95537
2022-12-04T04:09:02.847Z,95536
2022-12-04T04:11:02.850Z,95537
2022-12-04T04:12:02.818Z,95537
2022-12-04T04:14:02.833Z,95533
2022-12-04T04:15:02.852Z,95530
2022-12-04T04:16:02.911Z,95529
2022-12-04T04:17:02.833Z,95529
2022-12-04T04:18:02.933Z,95531
2022-12-04T04:19:02.860Z,95531
2022-12-04T04:20:02.850Z,95531
2022-12-04T04:21:02.878Z,95525
2022-12-04T04:22:02.845Z,95525
2022-12-04T04:23:02.901Z,95517
2022-12-04T04:24:02.922Z,95515
2022-12-04T04:25:02.855Z,95515
2022-12-04T04:26:02.888Z,95509
2022-12-04T04:27:02.909Z,95509
2022-12-04T04:28:02.900Z,95509
2022-12-04T04:29:02.937Z,95504
2022-12-04T04:30:07.524Z,95503
2022-12-04T04:31:03.002Z,95503
2022-12-04T04:33:02.881Z,95506
2022-12-04T04:34:02.896Z,95509
2022-12-04T04:35:02.921Z,95512
2022-12-04T04:36:02.884Z,95517
2022-12-04T04:37:02.911Z,95529
2022-12-04T04:38:02.935Z,95529
2022-12-04T04:39:02.943Z,95528
2022-12-04T04:40:02.915Z,95530
2022-12-04T04:41:02.919Z,95527
2022-12-04T04:42:02.951Z,95525
2022-12-04T04:43:02.931Z,95521
2022-12-04T04:44:02.944Z,95519
2022-12-04T04:45:02.938Z,95515
2022-12-04T04:47:02.966Z,95522
2022-12-04T04:48:02.887Z,95522
2022-12-04T04:49:02.948Z,95523
2022-12-04T04:50:02.967Z,95530
2022-12-04T04:52:02.983Z,95527
2022-12-04T04:53:02.967Z,95533
2022-12-04T04:54:02.970Z,95534
2022-12-04T04:55:03.018Z,95527
2022-12-04T04:56:02.946Z,95527
2022-12-04T04:57:02.965Z,95525
2022-12-04T04:58:02.958Z,95522
2022-12-04T04:59:02.937Z,95524
2022-12-04T05:00:03.003Z,95517
2022-12-04T05:01:02.984Z,95523
2022-12-04T05:02:03.080Z,95523
2022-12-04T05:03:03.033Z,95524
2022-12-04T05:04:02.947Z,95526
2022-12-04T05:05:03.021Z,95528
2022-12-04T05:06:02.989Z,95528
2022-12-04T05:07:07.760Z,95522
2022-12-04T05:08:03.090Z,95522
2022-12-04T05:09:02.990Z,95518
2022-12-04T05:10:03.025Z,95519
2022-12-04T05:11:02.947Z,95519
2022-12-04T05:12:02.956Z,95511
2022-12-04T05:13:03.020Z,95518
2022-12-04T05:14:02.947Z,95518
2022-12-04T05:15:03.001Z,95518
2022-12-04T05:16:03.079Z,95520
2022-12-04T05:17:05.498Z,95525
2022-12-04T05:18:03.062Z,95523
2022-12-04T05:19:03.025Z,95523
2022-12-04T05:20:03.018Z,95519
2022-12-04T05:21:03.015Z,95519
2022-12-04T05:23:03.021Z,95524
2022-12-04T05:24:03.001Z,95524
2022-12-04T05:25:03.022Z,95531
2022-12-04T05:26:03.031Z,95531
2022-12-04T05:27:02.997Z,95536
2022-12-04T05:28:03.084Z,95538
2022-12-04T05:29:03.048Z,95538
2022-12-04T05:30:03.060Z,95526
2022-12-04T05:31:03.107Z,95525
2022-12-04T05:32:03.059Z,95525
2022-12-04T05:33:03.069Z,95523
2022-12-04T05:34:03.032Z,95525
2022-12-04T05:35:07.645Z,95525
2022-12-04T05:36:03.085Z,95526
2022-12-04T05:37:03.010Z,95525
2022-12-04T05:38:03.055Z,95528
2022-12-04T05:39:03.064Z,95528
2022-12-04T05:40:03.041Z,95524
2022-12-04T05:41:03.142Z,95522
2022-12-04T05:43:03.060Z,95522
2022-12-04T05:46:03.124Z,95532
2022-12-04T05:48:03.075Z,95536
2022-12-04T05:49:03.087Z,95540
2022-12-04T05:50:03.041Z,95540
2022-12-04T05:51:03.128Z,95547
2022-12-04T05:52:03.081Z,95547
2022-12-04T05:53:03.080Z,95547
2022-12-04T05:54:03.104Z,95547
2022-12-04T05:55:03.059Z,95547
2022-12-04T05:56:03.159Z,95549
2022-12-04T05:57:03.107Z,95549
2022-12-04T05:58:03.106Z,95543
2022-12-04T05:59:03.137Z,95538
2022-12-04T06:00:03.101Z,95538
2022-12-04T06:01:03.069Z,95533
2022-12-04T06:02:03.191Z,95537
2022-12-04T06:03:03.128Z,95537
2022-12-04T06:04:03.117Z,95539
2022-12-04T06:05:03.119Z,95539
2022-12-04T06:06:03.153Z,95539
2022-12-04T06:07:03.115Z,95539
2022-12-04T06:08:03.185Z,95535
2022-12-04T06:09:03.129Z,95538
2022-12-04T06:10:03.129Z,95538
2022-12-04T06:11:03.080Z,95536
2022-12-04T06:12:03.100Z,95540
2022-12-04T06:13:03.103Z,95540
2022-12-04T06:14:03.157Z,95541
2022-12-04T06:15:03.118Z,95537
2022-12-04T06:16:03.169Z,95537
2022-12-04T06:17:03.162Z,95538
2022-12-04T06:18:03.293Z,95534
2022-12-04T06:19:03.154Z,95535
2022-12-04T06:20:07.967Z,95535
2022-12-04T06:21:08.188Z,95541
2022-12-04T06:22:03.197Z,95541
2022-12-04T06:23:03.154Z,95541
2022-12-04T06:25:03.191Z,95542
2022-12-04T06:26:06.973Z,95541
2022-12-04T06:29:03.170Z,95550
2022-12-04T06:30:03.185Z,95550
2022-12-04T06:31:03.181Z,95551
2022-12-04T06:32:03.262Z,95551
2022-12-04T06:33:03.181Z,95549
2022-12-04T06:34:03.198Z,95551
2022-12-04T06:35:03.202Z,95548
2022-12-04T06:36:03.208Z,95548
2022-12-04T06:37:03.227Z,95551
2022-12-04T06:38:03.221Z,95552
2022-12-04T06:39:03.234Z,95550
2022-12-04T06:40:03.167Z,95550
2022-12-04T06:41:03.205Z,95551
2022-12-04T06:42:03.214Z,95546
2022-12-04T06:43:03.206Z,95547
2022-12-04T06:44:03.254Z,95542
2022-12-04T06:45:03.200Z,95547
2022-12-04T06:46:03.258Z,95547
2022-12-04T06:47:03.220Z,95553
2022-12-04T06:48:03.194Z,95553
2022-12-04T06:49:03.285Z,95557
2022-12-04T06:50:03.201Z,95557
2022-12-04T06:51:03.180Z,95560
2022-12-04T06:52:03.274Z,95559
2022-12-04T06:53:08.116Z,95559
2022-12-04T06:54:03.555Z,95558
2022-12-04T06:55:03.486Z,95558
2022-12-04T06:56:03.205Z,95558
2022-12-04T06:57:03.301Z,95558
2022-12-04T06:58:08.266Z,95561
2022-12-04T06:59:03.215Z,95561
2022-12-04T07:00:03.240Z,95563
2022-12-04T07:01:03.347Z,95563
2022-12-04T07:02:03.373Z,95568
2022-12-04T07:03:03.260Z,95568
2022-12-04T07:04:03.295Z,95564
2022-12-04T07:05:03.271Z,95568
2022-12-04T07:06:03.259Z,95573
2022-12-04T07:07:03.299Z,95576
2022-12-04T07:08:03.334Z,95576
2022-12-04T07:09:03.272Z,95578
2022-12-04T07:10:03.278Z,95580
2022-12-04T07:11:03.253Z,95583
2022-12-04T07:12:03.296Z,95577
2022-12-04T07:13:03.245Z,95577
2022-12-04T07:14:03.273Z,95573
2022-12-04T07:15:03.319Z,95573
2022-12-04T07:16:03.338Z,95574
2022-12-04T07:17:03.436Z,95574
2022-12-04T07:18:03.265Z,95574
2022-12-04T07:19:03.319Z,95570
2022-12-04T07:20:03.309Z,95570
2022-12-04T07:21:03.300Z,95570
2022-12-04T07:22:03.345Z,95570
2022-12-04T07:23:07.238Z,95570
2022-12-04T07:24:03.313Z,95570
2022-12-04T07:25:03.348Z,95571
2022-12-04T07:27:03.358Z,95570
2022-12-04T07:28:03.327Z,95570
2022-12-04T07:29:03.293Z,95569
2022-12-04T07:30:03.348Z,95564
2022-12-04T07:31:03.273Z,95564
2022-12-04T07:32:03.899Z,95560
2022-12-04T07:33:03.338Z,95560
2022-12-04T07:34:03.353Z,95562
2022-12-04T07:35:03.363Z,95559
2022-12-04T07:36:03.321Z,95561
2022-12-04T07:37:03.378Z,95556
2022-12-04T07:38:03.364Z,95560
2022-12-04T07:40:03.407Z,95564
2022-12-04T07:41:03.362Z,95569
2022-12-04T07:42:03.351Z,95570
2022-12-04T07:44:03.317Z,95568
2022-12-04T07:46:03.519Z,95578
2022-12-04T07:47:03.411Z,95580
2022-12-04T07:49:03.357Z,95583
2022-12-04T07:50:03.405Z,95581
2022-12-04T07:51:03.388Z,95581
2022-12-04T07:52:03.407Z,95578
2022-12-04T07:53:03.396Z,95577
2022-12-04T07:54:04.487Z,95575
2022-12-04T07:55:03.425Z,95578
2022-12-04T07:56:03.346Z,95578
2022-12-04T07:57:03.402Z,95574
2022-12-04T07:58:03.440Z,95574
2022-12-04T07:59:03.410Z,95574
2022-12-04T08:00:03.449Z,95575
2022-12-04T08:01:03.379Z,95575
2022-12-04T08:02:03.401Z,95572
2022-12-04T08:03:03.434Z,95573
2022-12-04T08:04:03.600Z,95575
2022-12-04T08:05:03.588Z,95580
2022-12-04T08:07:03.436Z,95573
2022-12-04T08:08:03.487Z,95572
2022-12-04T08:09:09.469Z,95572
2022-12-04T08:10:03.474Z,95572
2022-12-04T08:11:03.383Z,95573
2022-12-04T08:14:03.425Z,95569
2022-12-04T08:15:03.432Z,95569
2022-12-04T08:16:03.454Z,95568
2022-12-04T08:17:03.524Z,95564
2022-12-04T08:18:03.438Z,95567
2022-12-04T08:19:03.466Z,95566
2022-12-04T08:20:03.502Z,95569
2022-12-04T08:21:03.455Z,95572
2022-12-04T08:22:03.426Z,95572
2022-12-04T08:23:03.493Z,95572
2022-12-04T08:24:03.457Z,95572
2022-12-04T08:26:03.479Z,95580
2022-12-04T08:27:03.481Z,95574
2022-12-04T08:28:03.517Z,95577
2022-12-04T08:29:03.468Z,95578
2022-12-04T08:31:03.585Z,95580
2022-12-04T08:32:03.511Z,95581
2022-12-04T08:33:03.517Z,95586
2022-12-04T08:34:03.481Z,95586
2022-12-04T08:35:03.489Z,95586
2022-12-04T08:36:03.518Z,95585
2022-12-04T08:37:03.447Z,95584
2022-12-04T08:39:03.516Z,95590
2022-12-04T08:40:03.513Z,95592
2022-12-04T08:41:03.529Z,95594
2022-12-04T08:42:03.472Z,95597
2022-12-04T08:44:03.557Z,95600
2022-12-04T08:45:03.490Z,95594
2022-12-04T08:46:04.430Z,95599
2022-12-04T08:48:03.521Z,95592
2022-12-04T08:50:03.505Z,95594
2022-12-04T08:51:03.584Z,95585
2022-12-04T08:52:03.544Z,95584
2022-12-04T08:53:03.507Z,95581
2022-12-04T08:54:03.536Z,95581
2022-12-04T08:55:03.492Z,95580
2022-12-04T08:56:03.564Z,95580
2022-12-04T08:58:03.508Z,95582
2022-12-04T08:59:03.545Z,95588
2022-12-04T09:00:03.548Z,95593
2022-12-04T09:01:03.615Z,95595
2022-12-04T09:02:03.649Z,95595
2022-12-04T09:03:03.515Z,95596
2022-12-04T09:04:03.684Z,95595
2022-12-04T09:05:03.563Z,95599
2022-12-04T09:06:03.564Z,95597
2022-12-04T09:08:03.685Z,95596
2022-12-04T09:09:03.555Z,95598
2022-12-04T09:11:03.583Z,95598
2022-12-04T09:12:03.621Z,95598
2022-12-04T09:13:03.541Z,95598
2022-12-04T09:14:03.579Z,95602
2022-12-04T09:15:03.598Z,95605
2022-12-04T09:17:03.617Z,95603
2022-12-04T09:18:03.557Z,95603
2022-12-04T09:19:03.590Z,95609
2022-12-04T09:20:03.864Z,95614
2022-12-04T09:21:03.592Z,95614
2022-12-04T09:23:05.275Z,95620
2022-12-04T09:24:03.614Z,95621
2022-12-04T09:25:03.701Z,95626
2022-12-04T09:26:03.567Z,95623
2022-12-04T09:27:03.613Z,95624
2022-12-04T09:28:03.606Z,95624
2022-12-04T09:30:03.607Z,95621
2022-12-04T09:31:03.743Z,95617
2022-12-04T09:32:03.650Z,95620
2022-12-04T09:35:03.621Z,95616
2022-12-04T09:36:03.598Z,95615
2022-12-04T09:37:03.688Z,95613
2022-12-04T09:38:03.622Z,95607
2022-12-04T09:39:03.631Z,95607
2022-12-04T09:40:03.667Z,95602
2022-12-04T09:41:03.625Z,95602
2022-12-04T09:42:03.598Z,95604
2022-12-04T09:43:03.706Z,95608
2022-12-04T09:46:03.721Z,95611
2022-12-04T09:47:03.860Z,95615
2022-12-04T09:48:03.685Z,95612
2022-12-04T09:49:03.675Z,95611
2022-12-04T09:50:03.697Z,95605
2022-12-04T09:52:03.620Z,95607
2022-12-04T09:53:03.704Z,95607
2022-12-04T09:54:03.692Z,95607
2022-12-04T09:57:03.685Z,95613
2022-12-04T09:58:03.708Z,95609
2022-12-04T09:59:03.653Z,95609
2022-12-04T10:00:04.864Z,95608
2022-12-04T10:01:03.747Z,95611
2022-12-04T10:02:03.777Z,95613
2022-12-04T10:04:06.276Z,95610
2022-12-04T10:05:03.660Z,95612
2022-12-04T10:06:03.767Z,95609
2022-12-04T10:07:03.663Z,95612
2022-12-04T10:08:03.799Z,95612
2022-12-04T10:09:03.699Z,95609
2022-12-04T10:10:03.690Z,95610
2022-12-04T10:11:03.708Z,95610
2022-12-04T10:15:03.745Z,95609
2022-12-04T10:16:03.816Z,95610
2022-12-04T10:17:03.729Z,95610
2022-12-04T10:18:03.728Z,95607
2022-12-04T10:19:03.738Z,95607
2022-12-04T10:20:03.691Z,95607
2022-12-04T10:21:03.776Z,95605
2022-12-04T10:22:03.691Z,95605
2022-12-04T10:25:03.733Z,95599
2022-12-04T10:27:03.752Z,95597
2022-12-04T10:28:03.721Z,95597
2022-12-04T10:29:03.764Z,95585
2022-12-04T10:30:03.717Z,95585
2022-12-04T10:31:03.855Z,95579
2022-12-04T10:32:03.736Z,95579
2022-12-04T10:33:03.763Z,95579
2022-12-04T10:34:03.792Z,95571
2022-12-04T10:36:03.747Z,95565
2022-12-04T10:37:04.927Z,95565
2022-12-04T10:38:03.729Z,95560
2022-12-04T10:39:03.824Z,95562
2022-12-04T10:40:03.784Z,95562
2022-12-04T10:41:03.794Z,95557
2022-12-04T10:42:03.821Z,95555
2022-12-04T10:43:03.818Z,95556
2022-12-04T10:45:03.791Z,95551
2022-12-04T10:46:03.809Z,95547
2022-12-04T10:47:03.979Z,95550
2022-12-04T10:48:03.808Z,95545
2022-12-04T10:49:03.826Z,95547
2022-12-04T10:50:03.806Z,95547
2022-12-04T10:51:03.768Z,95546
2022-12-04T10:54:03.880Z,95540
2022-12-04T10:55:03.787Z,95537
2022-12-04T10:56:03.797Z,95528
2022-12-04T10:57:03.814Z,95523
2022-12-04T10:58:03.805Z,95517
2022-12-04T11:00:04.083Z,95520
2022-12-04T11:01:03.807Z,95515
2022-12-04T11:03:03.860Z,95518
2022-12-04T11:06:03.870Z,95529
2022-12-04T11:07:03.841Z,95542
2022-12-04T11:08:03.901Z,95542
2022-12-04T11:10:03.851Z,95558
2022-12-04T11:11:03.832Z,95563
2022-12-04T11:12:03.857Z,95563
2022-12-04T11:13:03.871Z,95563
2022-12-04T11:14:05.145Z,95560
2022-12-04T11:15:03.863Z,95555
2022-12-04T11:16:03.956Z,95559
2022-12-04T11:17:03.929Z,95559
2022-12-04T11:21:03.896Z,95550
2022-12-04T11:22:03.911Z,95554
2022-12-04T11:23:03.859Z,95554
2022-12-04T11:24:03.920Z,95549
2022-12-04T11:25:03.892Z,95545
2022-12-04T11:26:05.834Z,95543
2022-12-04T11:27:03.921Z,95544
2022-12-04T11:28:03.874Z,95542
2022-12-04T11:29:03.872Z,95542
2022-12-04T11:30:03.863Z,95540
2022-12-04T11:31:03.944Z,95540
2022-12-04T11:33:03.878Z,95540
2022-12-04T11:34:03.984Z,95540
2022-12-04T11:35:03.911Z,95544
2022-12-04T11:36:03.921Z,95545
2022-12-04T11:37:03.964Z,95550
2022-12-04T11:38:03.932Z,95543
2022-12-04T11:39:03.930Z,95546
2022-12-04T11:40:03.937Z,95546
2022-12-04T11:41:03.905Z,95549
2022-12-04T11:42:03.925Z,95547
2022-12-04T11:43:03.898Z,95549
2022-12-04T11:44:03.935Z,95547
2022-12-04T11:45:03.961Z,95547
2022-12-04T11:46:03.957Z,95539
2022-12-04T11:47:04.015Z,95539
2022-12-04T11:48:03.962Z,95535
2022-12-04T11:49:03.943Z,95537
2022-12-04T11:50:04.032Z,95539
2022-12-04T11:51:05.407Z,95538
2022-12-04T11:52:04.024Z,95539
2022-12-04T11:53:03.933Z,95537
2022-12-04T11:54:03.931Z,95538
2022-12-04T11:55:03.980Z,95539
2022-12-04T11:56:04.011Z,95540
2022-12-04T11:57:03.961Z,95537
2022-12-04T11:58:03.974Z,95537
2022-12-04T11:59:03.962Z,95537
2022-12-04T12:00:04.023Z,95535
2022-12-04T12:02:04.115Z,95531
2022-12-04T12:03:04.160Z,95531
2022-12-04T12:04:03.983Z,95529
2022-12-04T12:05:04.021Z,95528
2022-12-04T12:06:03.988Z,95529
2022-12-04T12:07:04.032Z,95526
2022-12-04T12:08:04.008Z,95526
2022-12-04T12:09:04.028Z,95530
2022-12-04T12:10:04.019Z,95528
2022-12-04T12:12:04.035Z,95527
2022-12-04T12:17:04.051Z,95524
2022-12-04T12:18:04.001Z,95521
2022-12-04T12:19:03.981Z,95513
2022-12-04T12:21:03.993Z,95509
2022-12-04T12:22:05.579Z,95508
2022-12-04T12:23:04.041Z,95506
2022-12-04T12:24:04.024Z,95506
2022-12-04T12:26:04.043Z,95502
2022-12-04T12:27:03.996Z,95504
2022-12-04T12:28:05.709Z,95501
2022-12-04T12:29:04.014Z,95501
2022-12-04T12:30:04.090Z,95500
2022-12-04T12:31:05.936Z,95500
2022-12-04T12:32:04.171Z,95502
2022-12-04T12:33:04.044Z,95498
2022-12-04T12:34:04.113Z,95498
2022-12-04T12:35:04.070Z,95502
2022-12-04T12:36:04.032Z,95500
2022-12-04T12:38:04.112Z,95504
2022-12-04T12:39:04.037Z,95498
2022-12-04T12:40:04.119Z,95498
2022-12-04T12:41:04.088Z,95502
2022-12-04T12:42:04.084Z,95502
2022-12-04T12:43:04.170Z,95500
2022-12-04T12:44:04.087Z,95498
2022-12-04T12:45:04.934Z,95500
2022-12-04T12:46:04.203Z,95500
2022-12-04T12:47:04.068Z,95501
2022-12-04T12:48:04.092Z,95501
2022-12-04T12:49:04.091Z,95501
2022-12-04T12:50:04.105Z,95501
2022-12-04T12:51:28.486Z,95501
2022-12-04T12:52:04.073Z,95499
2022-12-04T12:53:04.095Z,95499
2022-12-04T12:54:04.072Z,95497
2022-12-04T12:55:04.147Z,95499
2022-12-04T12:56:04.118Z,95499
2022-12-04T12:57:04.151Z,95498
2022-12-04T12:58:04.120Z,95504
2022-12-04T12:59:04.116Z,95504
2022-12-04T13:01:04.186Z,95504
2022-12-04T13:02:04.174Z,95506
2022-12-04T13:04:04.173Z,95511
2022-12-04T13:05:05.947Z,95511
2022-12-04T13:06:04.108Z,95514
2022-12-04T13:08:04.297Z,95508
2022-12-04T13:09:04.097Z,95511
2022-12-04T13:10:04.204Z,95509
2022-12-04T13:11:04.105Z,95509
2022-12-04T13:14:04.147Z,95507
2022-12-04T13:15:04.154Z,95506
2022-12-04T13:16:04.164Z,95506
2022-12-04T13:17:04.245Z,95505
2022-12-04T13:18:04.163Z,95504
2022-12-04T13:19:04.166Z,95498
2022-12-04T13:20:09.579Z,95499
2022-12-04T13:21:04.117Z,95499
2022-12-04T13:22:04.196Z,95498
2022-12-04T13:24:04.142Z,95497
2022-12-04T13:25:04.155Z,95499
2022-12-04T13:27:04.194Z,95497
2022-12-04T13:29:04.202Z,95497
2022-12-04T13:30:04.192Z,95503
2022-12-04T13:31:04.239Z,95500
2022-12-04T13:32:04.264Z,95505
2022-12-04T13:33:04.174Z,95499
2022-12-04T13:34:04.176Z,95502
2022-12-04T13:35:04.187Z,95504
2022-12-04T13:36:04.201Z,95507
2022-12-04T13:37:04.164Z,95506
2022-12-04T13:39:04.274Z,95503
2022-12-04T13:40:04.216Z,95504
2022-12-04T13:41:04.263Z,95507
2022-12-04T13:42:06.165Z,95505
2022-12-04T13:43:04.221Z,95505
2022-12-04T13:44:07.157Z,95507
2022-12-04T13:45:04.201Z,95507
2022-12-04T13:46:04.231Z,95501
2022-12-04T13:47:04.223Z,95502
2022-12-04T13:48:04.220Z,95502
2022-12-04T13:49:04.295Z,95500
2022-12-04T13:50:06.447Z,95501
2022-12-04T13:51:04.198Z,95501
2022-12-04T13:52:04.282Z,95494
2022-12-04T13:53:04.236Z,95494
2022-12-04T13:54:04.242Z,95489
2022-12-04T13:55:04.277Z,95489
2022-12-04T13:56:08.675Z,95486
2022-12-04T13:57:04.249Z,95491
2022-12-04T13:58:04.214Z,95490
2022-12-04T13:59:04.290Z,95489
2022-12-04T14:00:04.271Z,95489
2022-12-04T14:01:04.340Z,95487
2022-12-04T14:02:08.144Z,95487
2022-12-04T14:03:04.309Z,95487
2022-12-04T14:05:04.283Z,95484
2022-12-04T14:06:04.293Z,95484
2022-12-04T14:07:04.344Z,95484
2022-12-04T14:08:07.597Z,95485
2022-12-04T14:11:04.294Z,95481
2022-12-04T14:13:04.332Z,95479
2022-12-04T14:14:07.927Z,95481
2022-12-04T14:15:04.340Z,95480
2022-12-04T14:16:04.253Z,95480
2022-12-04T14:17:04.476Z,95475
2022-12-04T14:18:04.280Z,95472
2022-12-04T14:19:06.446Z,95476
2022-12-04T14:20:07.506Z,95480
2022-12-04T14:21:04.313Z,95480
2022-12-04T14:22:04.358Z,95481
2022-12-04T14:24:04.316Z,95481
2022-12-04T14:25:04.324Z,95483
2022-12-04T14:26:04.296Z,95482
2022-12-04T14:28:04.306Z,95484
2022-12-04T14:29:04.311Z,95486
2022-12-04T14:30:04.404Z,95486
2022-12-04T14:31:04.437Z,95485
2022-12-04T14:32:04.306Z,95488
2022-12-04T14:33:04.337Z,95489
2022-12-04T14:34:04.361Z,95495
2022-12-04T14:35:04.445Z,95497
2022-12-04T14:36:04.346Z,95497
2022-12-04T14:37:04.365Z,95502
2022-12-04T14:38:04.393Z,95500
2022-12-04T14:39:04.362Z,95506
2022-12-04T14:40:04.360Z,95508
2022-12-04T14:41:04.428Z,95512
2022-12-04T14:42:04.364Z,95512